createdAt,value
2022-11-12T00:01:27.511Z,101802.48
2022-11-12T00:04:13.730Z,101800.48
2022-11-12T00:07:00.579Z,101804.78
2022-11-12T00:09:47.292Z,101806.64
2022-11-12T00:12:33.814Z,101806.41
2022-11-12T00:15:20.887Z,101806.03
2022-11-12T00:18:07.700Z,101810.85
2022-11-12T00:20:54.633Z,101803.77
2022-11-12T00:23:41.086Z,101796.34
2022-11-12T00:26:27.633Z,101791.90
2022-11-12T00:29:14.310Z,101788.06
2022-11-12T00:32:00.969Z,101786.48
2022-11-12T00:34:47.672Z,101781.28
2022-11-12T00:37:34.328Z,101779.46
2022-11-12T00:40:20.963Z,101779.59
2022-11-12T00:43:07.320Z,101776.58
2022-11-12T00:45:53.753Z,101774.24
2022-11-12T00:48:40.481Z,101771.77
2022-11-12T00:51:26.795Z,101770.66
2022-11-12T00:54:13.474Z,101771.56
2022-11-12T00:57:00.713Z,101773.65
2022-11-12T00:59:47.078Z,101770.59
2022-11-12T01:02:42.359Z,101766.23
2022-11-12T01:05:29.644Z,101766.81
2022-11-12T01:08:16.258Z,101770.39
2022-11-12T01:11:07.512Z,101774.67
2022-11-12T01:14:03.028Z,101770.95
2022-11-12T01:16:49.514Z,101775.22
2022-11-12T01:19:36.284Z,101773.45
2022-11-12T01:22:22.564Z,101769.39
2022-11-12T01:25:09.332Z,101767.27
2022-11-12T01:27:55.456Z,101764.48
2022-11-12T01:30:41.666Z,101761.79
2022-11-12T01:33:27.988Z,101757.19
2022-11-12T01:36:17.270Z,101751.66
2022-11-12T01:39:06.509Z,101751.13
2022-11-12T01:41:53.074Z,101748.05
2022-11-12T01:44:44.385Z,101748.60
2022-11-12T01:47:33.278Z,101745.70
2022-11-12T01:50:31.249Z,101744.13
2022-11-12T01:53:18.230Z,101743.05
2022-11-12T01:56:06.333Z,101743.90
2022-11-12T01:59:00.675Z,101746.40
2022-11-12T02:01:47.455Z,101748.86
2022-11-12T02:04:36.689Z,101742.31
2022-11-12T02:07:25.086Z,101739.95
2022-11-12T02:10:11.895Z,101738.83
2022-11-12T02:13:16.969Z,101743.30
2022-11-12T02:16:05.183Z,101740.70
2022-11-12T02:18:51.356Z,101738.33
2022-11-12T02:21:38.648Z,101738.23
2022-11-12T02:24:24.997Z,101741.21
2022-11-12T02:27:12.616Z,101741.11
2022-11-12T02:29:59.197Z,101737.60
2022-11-12T02:32:45.569Z,101739.11
2022-11-12T02:35:32.460Z,101742.73
2022-11-12T02:38:19.210Z,101745.34
2022-11-12T02:41:05.894Z,101742.90
2022-11-12T02:43:52.657Z,101742.14
2022-11-12T02:46:39.339Z,101734.75
2022-11-12T02:49:25.984Z,101737.46
2022-11-12T02:52:12.221Z,101740.07
2022-11-12T02:54:59.032Z,101746.34
2022-11-12T02:57:45.549Z,101748.46
2022-11-12T03:00:32.213Z,101739.24
2022-11-12T03:03:18.587Z,101749.02
2022-11-12T03:06:05.561Z,101747.79
2022-11-12T03:08:51.795Z,101747.39
2022-11-12T03:11:38.579Z,101751.77
2022-11-12T03:14:25.829Z,101750.92
2022-11-12T03:17:12.209Z,101751.03
2022-11-12T03:19:58.618Z,101749.13
2022-11-12T03:22:56.832Z,101750.14
2022-11-12T03:25:44.318Z,101747.20
2022-11-12T03:28:30.693Z,101747.33
2022-11-12T03:31:17.368Z,101744.67
2022-11-12T03:34:03.825Z,101742.48
2022-11-12T03:36:50.309Z,101742.95
2022-11-12T03:39:37.172Z,101740.76
2022-11-12T03:42:23.626Z,101737.69
2022-11-12T03:45:10.526Z,101741.48
2022-11-12T03:47:58.302Z,101742.66
2022-11-12T03:50:44.896Z,101743.10
2022-11-12T03:53:31.365Z,101743.84
2022-11-12T03:56:17.891Z,101741.58
2022-11-12T03:59:05.582Z,101738.01
2022-11-12T04:01:52.278Z,101729.00
2022-11-12T04:04:57.359Z,101728.77
2022-11-12T04:08:02.711Z,101729.50
2022-11-12T04:10:50.940Z,101728.47
2022-11-12T04:13:38.699Z,101731.33
2022-11-12T04:16:43.636Z,101735.59
2022-11-12T04:19:48.784Z,101733.52
2022-11-12T04:22:35.063Z,101725.83
2022-11-12T04:25:40.221Z,101725.29
2022-11-12T04:28:28.221Z,101723.98
2022-11-12T04:31:15.413Z,101725.68
2022-11-12T04:34:21.936Z,101729.63
2022-11-12T04:37:08.776Z,101726.86
2022-11-12T04:40:16.144Z,101726.73
2022-11-12T04:43:22.819Z,101724.84
2022-11-12T04:46:09.789Z,101725.20
2022-11-12T04:48:56.432Z,101723.79
2022-11-12T04:52:02.808Z,101724.84
2022-11-12T04:54:52.415Z,101722.50
2022-11-12T04:57:39.205Z,101716.58
2022-11-12T05:00:26.158Z,101717.59
2022-11-12T05:03:12.872Z,101720.47
2022-11-12T05:06:25.597Z,101720.23
2022-11-12T05:09:12.048Z,101726.52
2022-11-12T05:11:59.903Z,101728.09
2022-11-12T05:14:49.171Z,101725.84
2022-11-12T05:17:42.854Z,101725.75
2022-11-12T05:20:29.458Z,101729.73
2022-11-12T05:23:16.313Z,101736.84
2022-11-12T05:26:02.806Z,101739.73
2022-11-12T05:28:49.316Z,101743.33
2022-11-12T05:31:36.094Z,101743.94
2022-11-12T05:34:23.228Z,101745.27
2022-11-12T05:37:11.886Z,101750.96
2022-11-12T05:39:59.240Z,101753.58
2022-11-12T05:42:45.785Z,101751.41
2022-11-12T05:45:32.499Z,101753.92
2022-11-12T05:48:23.952Z,101755.48
2022-11-12T05:51:14.327Z,101758.95
2022-11-12T05:54:01.404Z,101762.80
2022-11-12T05:56:48.433Z,101763.86
2022-11-12T05:59:35.167Z,101771.40
2022-11-12T06:02:21.666Z,101781.77
2022-11-12T06:05:08.860Z,101781.70
2022-11-12T06:07:56.003Z,101788.86
2022-11-12T06:10:42.594Z,101790.81
2022-11-12T06:13:29.458Z,101789.14
2022-11-12T06:16:16.456Z,101782.16
2022-11-12T06:19:03.124Z,101781.49
2022-11-12T06:21:49.948Z,101783.42
2022-11-12T06:24:36.753Z,101783.83
2022-11-12T06:27:24.206Z,101782.98
2022-11-12T06:30:11.053Z,101783.71
2022-11-12T06:32:57.437Z,101782.27
2022-11-12T06:35:43.522Z,101784.47
2022-11-12T06:38:31.250Z,101783.23
2022-11-12T06:41:17.730Z,101782.45
2022-11-12T06:44:05.217Z,101782.91
2022-11-12T06:46:51.473Z,101788.13
2022-11-12T06:49:41.217Z,101790.45
2022-11-12T06:52:28.196Z,101791.25
2022-11-12T06:55:15.215Z,101801.59
2022-11-12T06:58:01.894Z,101809.02
2022-11-12T07:00:48.523Z,101807.13
2022-11-12T07:03:35.019Z,101803.77
2022-11-12T07:06:21.652Z,101797.42
2022-11-12T07:09:08.598Z,101790.16
2022-11-12T07:11:54.920Z,101784.73
2022-11-12T07:14:41.362Z,101784.87
2022-11-12T07:17:28.426Z,101787.10
2022-11-12T07:20:14.990Z,101786.14
2022-11-12T07:23:01.925Z,101783.27
2022-11-12T07:25:55.942Z,101772.05
2022-11-12T07:28:42.700Z,101767.15
2022-11-12T07:31:29.210Z,101765.48
2022-11-12T07:34:15.955Z,101766.85
2022-11-12T07:37:02.629Z,101774.45
2022-11-12T07:39:49.365Z,101779.77
2022-11-12T07:42:35.898Z,101782.12
2022-11-12T07:45:22.774Z,101787.39
2022-11-12T07:48:09.453Z,101787.69
2022-11-12T07:51:24.041Z,101788.14
2022-11-12T07:54:10.858Z,101789.28
2022-11-12T07:56:57.261Z,101789.25
2022-11-12T07:59:46.288Z,101785.02
2022-11-12T08:02:33.180Z,101783.79
2022-11-12T08:05:21.482Z,101784.52
2022-11-12T08:08:08.730Z,101786.52
2022-11-12T08:10:59.374Z,101798.55
2022-11-12T08:13:45.867Z,101803.85
2022-11-12T08:16:32.809Z,101808.45
2022-11-12T08:19:19.234Z,101813.20
2022-11-12T08:22:05.684Z,101817.27
2022-11-12T08:24:52.405Z,101821.64
2022-11-12T08:27:38.902Z,101824.47
2022-11-12T08:30:27.630Z,101824.17
2022-11-12T08:33:13.916Z,101826.09
2022-11-12T08:36:05.144Z,101828.70
2022-11-12T08:38:53.669Z,101824.39
2022-11-12T08:41:40.336Z,101827.30
2022-11-12T08:44:26.936Z,101834.82
2022-11-12T08:47:13.515Z,101832.64
2022-11-12T08:50:00.044Z,101832.55
2022-11-12T08:52:46.450Z,101838.76
2022-11-12T08:55:34.257Z,101838.13
2022-11-12T08:58:21.142Z,101840.45
2022-11-12T09:01:08.700Z,101842.66
2022-11-12T09:03:55.588Z,101842.75
2022-11-12T09:06:42.375Z,101845.70
2022-11-12T09:09:29.094Z,101843.96
2022-11-12T09:12:19.877Z,101842.38
2022-11-12T09:15:36.296Z,101839.44
2022-11-12T09:18:16.717Z,101840.39
2022-11-12T09:21:11.804Z,101837.84
2022-11-12T09:23:58.389Z,101835.64
2022-11-12T09:26:45.010Z,101834.42
2022-11-12T09:29:31.669Z,101836.38
2022-11-12T09:32:18.001Z,101836.23
2022-11-12T09:35:04.972Z,101835.92
2022-11-12T09:37:51.426Z,101832.91
2022-11-12T09:40:52.471Z,101836.14
2022-11-12T09:43:51.740Z,101836.15
2022-11-12T09:46:59.532Z,101833.40
2022-11-12T09:50:10.554Z,101831.04
2022-11-12T09:53:07.858Z,101830.92
2022-11-12T09:55:54.466Z,101829.33
2022-11-12T09:58:41.012Z,101829.13
2022-11-12T10:01:39.493Z,101823.23
2022-11-12T10:04:28.494Z,101817.30
2022-11-12T10:07:21.261Z,101820.55
2022-11-12T10:10:33.136Z,101818.48
2022-11-12T10:13:32.081Z,101818.77
2022-11-12T10:16:45.749Z,101821.86
2022-11-12T10:20:13.599Z,101821.14
2022-11-12T10:23:18.686Z,101820.34
2022-11-12T10:26:12.535Z,101820.23
2022-11-12T10:29:11.187Z,101818.84
2022-11-12T10:32:00.709Z,101817.45
2022-11-12T10:34:47.205Z,101815.27
2022-11-12T10:37:41.395Z,101815.35
2022-11-12T10:40:37.212Z,101812.27
2022-11-12T10:43:25.049Z,101813.89
2022-11-12T10:46:19.614Z,101807.61
2022-11-12T10:49:26.234Z,101808.29
2022-11-12T10:52:24.314Z,101807.59
2022-11-12T10:55:23.066Z,101810.06
2022-11-12T10:58:12.184Z,101809.13
2022-11-12T11:01:14.756Z,101807.20
2022-11-12T11:04:01.744Z,101809.76
2022-11-12T11:06:48.346Z,101805.30
2022-11-12T11:09:35.178Z,101801.32
2022-11-12T11:12:34.702Z,101800.23
2022-11-12T11:15:23.957Z,101801.45
2022-11-12T11:18:12.873Z,101800.58
2022-11-12T11:21:50.774Z,101795.35
2022-11-12T11:24:53.817Z,101793.06
2022-11-12T11:28:05.693Z,101792.66
2022-11-12T11:30:55.349Z,101790.70
2022-11-12T11:34:19.509Z,101788.92
2022-11-12T11:37:27.075Z,101789.27
2022-11-12T11:40:38.080Z,101788.43
2022-11-12T11:43:37.140Z,101786.98
2022-11-12T11:46:57.701Z,101787.04
2022-11-12T11:50:02.390Z,101785.37
2022-11-12T11:53:00.814Z,101778.78
2022-11-12T11:56:11.680Z,101780.75
2022-11-12T11:59:19.671Z,101780.36
2022-11-12T12:02:24.844Z,101779.11
2022-11-12T12:05:34.016Z,101783.70
2022-11-12T12:08:49.051Z,101784.81
2022-11-12T12:11:53.821Z,101783.48
2022-11-12T12:14:49.727Z,101783.14
2022-11-12T12:18:16.440Z,101782.66
2022-11-12T12:21:09.843Z,101780.48
2022-11-12T12:23:59.969Z,101782.09
2022-11-12T12:27:03.234Z,101780.23
2022-11-12T12:29:53.788Z,101778.73
2022-11-12T12:32:46.354Z,101775.34
2022-11-12T12:35:52.793Z,101775.39
2022-11-12T12:38:52.837Z,101770.09
2022-11-12T12:41:53.381Z,101768.25
2022-11-12T12:45:00.177Z,101765.91
2022-11-12T12:47:47.815Z,101766.88
2022-11-12T12:50:38.294Z,101766.73
2022-11-12T12:53:24.656Z,101761.85
2022-11-12T12:56:13.963Z,101761.80
2022-11-12T12:59:05.795Z,101763.22
2022-11-12T13:02:01.435Z,101759.73
2022-11-12T13:04:52.935Z,101754.88
2022-11-12T13:07:49.239Z,101757.60
2022-11-12T13:10:42.014Z,101761.85
2022-11-12T13:13:34.063Z,101762.00
2022-11-12T13:16:51.520Z,101764.27
2022-11-12T13:19:53.359Z,101764.83
2022-11-12T13:22:39.819Z,101769.84
2022-11-12T13:25:29.720Z,101773.29
2022-11-12T13:28:16.472Z,101770.08
2022-11-12T13:31:04.483Z,101773.30
2022-11-12T13:33:51.221Z,101772.59
2022-11-12T13:36:37.974Z,101770.67
2022-11-12T13:39:25.189Z,101767.50
2022-11-12T13:42:36.335Z,101766.99
2022-11-12T13:45:27.242Z,101765.45
2022-11-12T13:48:38.873Z,101763.46
2022-11-12T13:51:34.020Z,101768.61
2022-11-12T13:54:37.932Z,101765.34
2022-11-12T13:57:28.657Z,101764.87
2022-11-12T14:00:18.055Z,101764.16
2022-11-12T14:03:07.725Z,101762.44
2022-11-12T14:05:55.784Z,101759.35
2022-11-12T14:09:06.070Z,101760.48
2022-11-12T14:12:22.693Z,101758.82
2022-11-12T14:15:38.076Z,101759.23
2022-11-12T14:18:55.914Z,101758.58
2022-11-12T14:21:42.329Z,101760.84
2022-11-12T14:24:28.773Z,101761.16
2022-11-12T14:27:22.847Z,101763.26
2022-11-12T14:30:18.564Z,101765.69
2022-11-12T14:33:10.390Z,101768.00
2022-11-12T14:36:04.742Z,101766.73
2022-11-12T14:38:55.412Z,101772.55
2022-11-12T14:41:46.059Z,101770.35
2022-11-12T14:44:36.696Z,101764.65
2022-11-12T14:47:24.386Z,101767.71
2022-11-12T14:50:39.191Z,101768.38
2022-11-12T14:53:34.845Z,101769.52
2022-11-12T14:56:36.594Z,101773.41
2022-11-12T14:59:23.302Z,101773.91
2022-11-12T15:05:23.636Z,101773.05
2022-11-12T15:08:12.064Z,101773.20
2022-11-12T15:11:18.835Z,101774.87
2022-11-12T15:14:14.047Z,101779.22
2022-11-12T15:17:01.051Z,101776.43
2022-11-12T15:19:47.436Z,101775.35
2022-11-12T15:22:34.419Z,101781.13
2022-11-12T15:25:25.979Z,101780.77
2022-11-12T15:28:24.311Z,101780.60
2022-11-12T15:31:20.561Z,101779.50
2022-11-12T15:34:24.710Z,101781.09
2022-11-12T15:37:20.117Z,101781.73
2022-11-12T15:40:15.972Z,101783.29
2022-11-12T15:43:03.045Z,101787.52
2022-11-12T15:45:54.998Z,101785.69
2022-11-12T15:48:41.705Z,101785.93
2022-11-12T15:51:28.147Z,101790.77
2022-11-12T15:54:14.539Z,101793.54
2022-11-12T15:57:01.038Z,101797.98
2022-11-12T15:59:57.243Z,101800.83
2022-11-12T16:02:46.447Z,101801.17
2022-11-12T16:05:33.335Z,101800.77
2022-11-12T16:08:19.811Z,101800.67
2022-11-12T16:11:26.296Z,101799.89
2022-11-12T16:14:14.186Z,101799.67
2022-11-12T16:17:00.834Z,101799.62
2022-11-12T16:19:47.115Z,101800.56
2022-11-12T16:22:33.412Z,101802.83
2022-11-12T16:25:20.620Z,101802.80
2022-11-12T16:28:16.250Z,101799.42
2022-11-12T16:31:02.530Z,101806.01
2022-11-12T16:33:48.644Z,101807.14
2022-11-12T16:36:35.334Z,101806.11
2022-11-12T16:39:21.605Z,101804.37
2022-11-12T16:42:11.315Z,101805.44
2022-11-12T16:44:57.616Z,101805.27
2022-11-12T16:47:46.442Z,101807.34
2022-11-12T16:50:32.829Z,101804.39
2022-11-12T16:53:19.347Z,101810.61
2022-11-12T16:56:14.410Z,101807.71
2022-11-12T16:59:00.791Z,101809.55
2022-11-12T17:01:47.294Z,101806.20
2022-11-12T17:04:33.908Z,101806.73
2022-11-12T17:07:20.542Z,101805.97
2022-11-12T17:10:08.180Z,101809.64
2022-11-12T17:12:54.596Z,101810.14
2022-11-12T17:15:41.328Z,101812.13
2022-11-12T17:18:28.868Z,101813.63
2022-11-12T17:21:18.376Z,101813.62
2022-11-12T17:24:05.270Z,101817.09
2022-11-12T17:26:51.350Z,101818.30
2022-11-12T17:29:38.004Z,101818.76
2022-11-12T17:32:24.799Z,101819.39
2022-11-12T17:35:11.148Z,101823.62
2022-11-12T17:37:57.627Z,101823.98
2022-11-12T17:40:44.042Z,101824.61
2022-11-12T17:43:30.372Z,101828.15
2022-11-12T17:46:16.838Z,101821.44
2022-11-12T17:49:03.973Z,101823.00
2022-11-12T17:51:50.641Z,101824.98
2022-11-12T17:54:37.289Z,101826.86
2022-11-12T17:57:23.912Z,101829.26
2022-11-12T18:00:11.128Z,101826.98
2022-11-12T18:02:58.556Z,101827.48
2022-11-12T18:05:45.171Z,101828.33
2022-11-12T18:08:31.964Z,101829.70
2022-11-12T18:11:18.815Z,101833.27
2022-11-12T18:14:09.082Z,101834.20
2022-11-12T18:16:59.271Z,101834.48
2022-11-12T18:19:45.664Z,101837.23
2022-11-12T18:22:32.521Z,101840.84
2022-11-12T18:25:18.757Z,101839.14
2022-11-12T18:28:06.719Z,101841.79
2022-11-12T18:31:03.013Z,101840.18
2022-11-12T18:33:50.672Z,101842.77
2022-11-12T18:36:37.019Z,101843.74
2022-11-12T18:39:23.247Z,101846.16
2022-11-12T18:42:09.626Z,101845.07
2022-11-12T18:44:56.505Z,101845.80
2022-11-12T18:47:42.943Z,101847.75
2022-11-12T18:50:29.478Z,101853.67
2022-11-12T18:53:15.947Z,101857.51
2022-11-12T18:56:07.860Z,101857.90
2022-11-12T18:58:54.257Z,101861.80
2022-11-12T19:01:40.802Z,101864.36
2022-11-12T19:04:27.823Z,101864.96
2022-11-12T19:07:14.411Z,101866.30
2022-11-12T19:10:14.681Z,101867.00
2022-11-12T19:13:04.118Z,101870.41
2022-11-12T19:15:50.848Z,101870.48
2022-11-12T19:18:39.116Z,101867.09
2022-11-12T19:21:27.048Z,101865.96
2022-11-12T19:24:13.808Z,101864.15
2022-11-12T19:27:00.465Z,101863.63
2022-11-12T19:29:49.568Z,101865.54
2022-11-12T19:32:36.572Z,101865.70
2022-11-12T19:35:22.800Z,101864.38
2022-11-12T19:38:09.743Z,101865.11
2022-11-12T19:40:55.934Z,101860.34
2022-11-12T19:43:42.702Z,101860.05
2022-11-12T19:46:31.149Z,101865.64
2022-11-12T19:49:17.522Z,101866.02
2022-11-12T19:52:04.864Z,101865.16
2022-11-12T19:54:51.577Z,101866.38
2022-11-12T19:57:38.177Z,101867.68
2022-11-12T20:00:24.995Z,101872.39
2022-11-12T20:03:11.377Z,101874.33
2022-11-12T20:06:07.060Z,101872.99
2022-11-12T20:08:53.729Z,101872.82
2022-11-12T20:11:40.284Z,101876.44
2022-11-12T20:14:26.718Z,101877.17
2022-11-12T20:17:13.618Z,101874.70
2022-11-12T20:20:00.787Z,101878.31
2022-11-12T20:22:47.147Z,101879.71
2022-11-12T20:25:33.758Z,101880.77
2022-11-12T20:28:20.541Z,101880.41
2022-11-12T20:31:10.806Z,101877.52
2022-11-12T20:33:57.155Z,101881.21
2022-11-12T20:36:43.526Z,101884.61
2022-11-12T20:39:30.125Z,101885.52
2022-11-12T20:42:16.329Z,101885.23
2022-11-12T20:45:03.284Z,101883.70
2022-11-12T20:47:50.343Z,101881.29
2022-11-12T20:50:36.999Z,101876.92
2022-11-12T20:53:23.705Z,101877.38
2022-11-12T20:56:14.766Z,101875.23
2022-11-12T20:59:06.401Z,101875.05
2022-11-12T21:01:57.532Z,101871.95
2022-11-12T21:04:44.103Z,101874.67
2022-11-12T21:07:30.714Z,101877.16
2022-11-12T21:10:17.672Z,101878.91
2022-11-12T21:13:04.470Z,101878.48
2022-11-12T21:15:52.195Z,101878.83
2022-11-12T21:18:39.668Z,101877.44
2022-11-12T21:21:29.445Z,101879.42
2022-11-12T21:24:18.251Z,101877.48
2022-11-12T21:27:04.489Z,101879.75
2022-11-12T21:29:50.933Z,101881.44
2022-11-12T21:32:38.533Z,101882.94
2022-11-12T21:35:25.161Z,101884.55
2022-11-12T21:38:11.787Z,101886.52
2022-11-12T21:41:07.182Z,101892.56
2022-11-12T21:43:54.497Z,101894.67
2022-11-12T21:46:41.118Z,101894.92
2022-11-12T21:49:27.668Z,101900.64
2022-11-12T21:52:13.899Z,101899.72
2022-11-12T21:55:00.291Z,101899.80
2022-11-12T21:57:46.731Z,101900.29
2022-11-12T22:00:42.373Z,101896.94
2022-11-12T22:03:32.006Z,101894.21
2022-11-12T22:06:20.373Z,101894.08
2022-11-12T22:09:06.755Z,101897.23
2022-11-12T22:11:53.288Z,101898.16
2022-11-12T22:14:39.881Z,101900.26
2022-11-12T22:17:26.457Z,101899.02
2022-11-12T22:20:12.857Z,101896.42
2022-11-12T22:22:59.620Z,101894.69
2022-11-12T22:25:46.123Z,101896.88
2022-11-12T22:28:34.490Z,101895.30
2022-11-12T22:31:40.992Z,101894.59
2022-11-12T22:34:27.289Z,101893.52
2022-11-12T22:37:14.030Z,101895.24
2022-11-12T22:40:00.552Z,101893.36
2022-11-12T22:42:47.231Z,101887.45
2022-11-12T22:45:35.429Z,101891.25
2022-11-12T22:48:22.070Z,101891.73
2022-11-12T22:51:14.696Z,101886.82
2022-11-12T22:54:04.105Z,101885.39
2022-11-12T22:56:50.724Z,101879.98
2022-11-12T22:59:37.373Z,101874.95
2022-11-12T23:02:24.294Z,101875.62
2022-11-12T23:05:11.194Z,101879.30
2022-11-12T23:07:57.800Z,101877.60
2022-11-12T23:10:46.006Z,101876.60
2022-11-12T23:13:33.209Z,101878.70
2022-11-12T23:16:25.543Z,101876.77
2022-11-12T23:19:12.156Z,101878.15
2022-11-12T23:21:58.781Z,101872.76
2022-11-12T23:24:45.396Z,101877.20
2022-11-12T23:27:31.994Z,101879.75
2022-11-12T23:30:19.084Z,101876.46
2022-11-12T23:33:05.973Z,101875.45
2022-11-12T23:35:52.672Z,101872.19
2022-11-12T23:38:39.544Z,101873.39
2022-11-12T23:41:27.727Z,101868.14
2022-11-12T23:44:14.215Z,101862.94
2022-11-12T23:47:00.404Z,101861.65
2022-11-12T23:49:46.539Z,101859.71
2022-11-12T23:52:33.131Z,101861.12
2022-11-12T23:55:19.616Z,101859.17
2022-11-12T23:58:06.031Z,101859.39
